createdAt,value
2022-12-31T00:00:09.952Z,1003.24
2022-12-31T00:01:09.903Z,1003.24
2022-12-31T00:02:09.944Z,1003.25
2022-12-31T00:03:09.986Z,1003.24
2022-12-31T00:04:09.853Z,1003.23
2022-12-31T00:05:09.828Z,1003.21
2022-12-31T00:06:09.846Z,1003.24
2022-12-31T00:07:09.803Z,1003.21
2022-12-31T00:08:09.845Z,1003.26
2022-12-31T00:09:09.768Z,1003.24
2022-12-31T00:10:09.800Z,1003.28
2022-12-31T00:11:09.735Z,1003.32
2022-12-31T00:12:09.786Z,1003.31
2022-12-31T00:13:09.757Z,1003.35
2022-12-31T00:14:09.740Z,1003.37
2022-12-31T00:15:09.727Z,1003.37
2022-12-31T00:16:12.200Z,1003.42
2022-12-31T00:17:09.799Z,1003.43
2022-12-31T00:18:09.668Z,1003.51
2022-12-31T00:19:09.660Z,1003.45
2022-12-31T00:20:09.724Z,1003.41
2022-12-31T00:21:09.666Z,1003.42
2022-12-31T00:22:09.592Z,1003.36
2022-12-31T00:23:09.568Z,1003.36
2022-12-31T00:24:09.572Z,1003.29
2022-12-31T00:25:09.584Z,1003.20
2022-12-31T00:26:09.527Z,1003.19
2022-12-31T00:27:09.555Z,1003.21
2022-12-31T00:28:09.557Z,1003.24
2022-12-31T00:29:09.497Z,1003.24
2022-12-31T00:30:09.509Z,1003.15
2022-12-31T00:31:09.528Z,1003.21
2022-12-31T00:32:09.460Z,1003.20
2022-12-31T00:33:09.427Z,1003.20
2022-12-31T00:34:09.420Z,1003.16
2022-12-31T00:35:09.435Z,1003.18
2022-12-31T00:36:09.409Z,1003.15
2022-12-31T00:37:09.383Z,1003.13
2022-12-31T00:38:09.479Z,1003.12
2022-12-31T00:39:09.384Z,1003.11
2022-12-31T00:40:09.356Z,1003.14
2022-12-31T00:41:09.379Z,1003.07
2022-12-31T00:42:09.331Z,1003.05
2022-12-31T00:43:09.312Z,1003.14
2022-12-31T00:44:09.334Z,1003.09
2022-12-31T00:45:09.283Z,1003.02
2022-12-31T00:46:09.369Z,1003.07
2022-12-31T00:47:09.275Z,1003.10
2022-12-31T00:48:09.239Z,1003.08
2022-12-31T00:49:09.221Z,1003.09
2022-12-31T00:50:09.223Z,1003.03
2022-12-31T00:51:09.210Z,1003.00
2022-12-31T00:52:09.242Z,1002.95
2022-12-31T00:53:09.188Z,1002.94
2022-12-31T00:54:09.166Z,1002.86
2022-12-31T00:55:09.124Z,1002.83
2022-12-31T00:56:09.113Z,1002.79
2022-12-31T00:57:09.114Z,1002.82
2022-12-31T00:58:09.138Z,1002.78
2022-12-31T00:59:09.110Z,1002.79
2022-12-31T01:00:09.085Z,1002.77
2022-12-31T01:01:09.195Z,1002.79
2022-12-31T01:02:09.160Z,1002.74
2022-12-31T01:03:20.411Z,1002.72
2022-12-31T01:04:09.056Z,1002.73
2022-12-31T01:05:09.006Z,1002.72
2022-12-31T01:06:09.015Z,1002.70
2022-12-31T01:07:08.969Z,1002.67
2022-12-31T01:08:08.950Z,1002.67
2022-12-31T01:09:08.947Z,1002.68
2022-12-31T01:10:08.929Z,1002.68
2022-12-31T01:11:08.905Z,1002.67
2022-12-31T01:12:08.899Z,1002.66
2022-12-31T01:13:08.903Z,1002.60
2022-12-31T01:14:08.874Z,1002.56
2022-12-31T01:15:08.890Z,1002.62
2022-12-31T01:16:08.934Z,1002.59
2022-12-31T01:17:08.878Z,1002.59
2022-12-31T01:18:08.827Z,1002.63
2022-12-31T01:19:09.252Z,1002.62
2022-12-31T01:20:08.855Z,1002.65
2022-12-31T01:21:08.792Z,1002.58
2022-12-31T01:22:08.768Z,1002.57
2022-12-31T01:23:08.743Z,1002.59
2022-12-31T01:24:08.770Z,1002.56
2022-12-31T01:25:08.717Z,1002.52
2022-12-31T01:26:08.749Z,1002.57
2022-12-31T01:27:08.703Z,1002.56
2022-12-31T01:28:08.684Z,1002.52
2022-12-31T01:29:08.685Z,1002.60
2022-12-31T01:30:08.699Z,1002.55
2022-12-31T01:31:08.825Z,1002.55
2022-12-31T01:32:08.703Z,1002.57
2022-12-31T01:33:08.676Z,1002.56
2022-12-31T01:34:08.598Z,1002.58
2022-12-31T01:35:08.617Z,1002.57
2022-12-31T01:36:08.571Z,1002.54
2022-12-31T01:37:08.544Z,1002.49
2022-12-31T01:38:08.546Z,1002.48
2022-12-31T01:39:08.551Z,1002.44
2022-12-31T01:40:08.544Z,1002.48
2022-12-31T01:41:08.488Z,1002.48
2022-12-31T01:42:08.508Z,1002.38
2022-12-31T01:43:08.467Z,1002.44
2022-12-31T01:44:08.480Z,1002.38
2022-12-31T01:45:08.429Z,1002.34
2022-12-31T01:46:08.447Z,1002.37
2022-12-31T01:47:08.462Z,1002.41
2022-12-31T01:48:08.408Z,1002.35
2022-12-31T01:49:08.396Z,1002.33
2022-12-31T01:50:08.390Z,1002.35
2022-12-31T01:51:08.358Z,1002.37
2022-12-31T01:52:08.407Z,1002.37
2022-12-31T01:53:08.356Z,1002.33
2022-12-31T01:54:08.312Z,1002.34
2022-12-31T01:55:08.332Z,1002.36
2022-12-31T01:56:08.327Z,1002.35
2022-12-31T01:57:08.300Z,1002.42
2022-12-31T01:58:08.297Z,1002.39
2022-12-31T01:59:08.241Z,1002.42
2022-12-31T02:00:08.287Z,1002.55
2022-12-31T02:01:08.299Z,1002.64
2022-12-31T02:02:08.322Z,1002.52
2022-12-31T02:03:08.304Z,1002.59
2022-12-31T02:04:08.209Z,1002.60
2022-12-31T02:05:08.167Z,1002.54
2022-12-31T02:06:08.170Z,1002.52
2022-12-31T02:07:08.175Z,1002.62
2022-12-31T02:08:08.132Z,1002.62
2022-12-31T02:09:08.113Z,1002.65
2022-12-31T02:10:08.126Z,1002.58
2022-12-31T02:11:08.143Z,1002.63
2022-12-31T02:12:08.093Z,1002.53
2022-12-31T02:13:08.072Z,1002.51
2022-12-31T02:14:08.036Z,1002.51
2022-12-31T02:15:08.046Z,1002.56
2022-12-31T02:16:08.087Z,1002.53
2022-12-31T02:17:07.995Z,1002.51
2022-12-31T02:18:07.996Z,1002.47
2022-12-31T02:19:07.973Z,1002.50
2022-12-31T02:20:08.002Z,1002.49
2022-12-31T02:21:08.149Z,1002.34
2022-12-31T02:22:07.926Z,1002.29
2022-12-31T02:23:07.959Z,1002.37
2022-12-31T02:24:07.890Z,1002.26
2022-12-31T02:25:07.948Z,1002.40
2022-12-31T02:26:07.889Z,1002.32
2022-12-31T02:27:07.887Z,1002.35
2022-12-31T02:28:07.940Z,1002.31
2022-12-31T02:29:07.835Z,1002.41
2022-12-31T02:30:07.827Z,1002.37
2022-12-31T02:31:07.840Z,1002.43
2022-12-31T02:32:07.782Z,1002.27
2022-12-31T02:33:07.778Z,1002.41
2022-12-31T02:34:07.813Z,1002.30
2022-12-31T02:35:07.762Z,1002.27
2022-12-31T02:36:07.752Z,1002.36
2022-12-31T02:37:07.724Z,1002.25
2022-12-31T02:38:07.716Z,1002.31
2022-12-31T02:39:07.703Z,1002.32
2022-12-31T02:40:07.701Z,1002.30
2022-12-31T02:41:07.710Z,1002.22
2022-12-31T02:42:07.682Z,1002.28
2022-12-31T02:43:07.657Z,1002.19
2022-12-31T02:44:07.623Z,1002.38
2022-12-31T02:45:07.629Z,1002.28
2022-12-31T02:46:07.650Z,1002.32
2022-12-31T02:47:07.637Z,1002.25
2022-12-31T02:48:07.620Z,1002.14
2022-12-31T02:49:07.571Z,1002.25
2022-12-31T02:50:07.653Z,1002.34
2022-12-31T02:51:07.583Z,1002.31
2022-12-31T02:52:07.538Z,1002.28
2022-12-31T02:53:07.557Z,1002.33
2022-12-31T02:54:07.535Z,1002.29
2022-12-31T02:55:07.486Z,1002.34
2022-12-31T02:56:07.499Z,1002.38
2022-12-31T02:57:07.523Z,1002.51
2022-12-31T02:58:07.487Z,1002.43
2022-12-31T02:59:07.499Z,1002.44
2022-12-31T03:00:07.513Z,1002.42
2022-12-31T03:01:07.546Z,1002.43
2022-12-31T03:02:07.509Z,1002.43
2022-12-31T03:03:07.433Z,1002.54
2022-12-31T03:04:07.370Z,1002.58
2022-12-31T03:05:07.390Z,1002.47
2022-12-31T03:06:07.363Z,1002.74
2022-12-31T03:07:07.355Z,1002.47
2022-12-31T03:08:07.348Z,1002.70
2022-12-31T03:09:07.297Z,1002.64
2022-12-31T03:10:07.283Z,1002.75
2022-12-31T03:11:07.348Z,1002.76
2022-12-31T03:12:07.351Z,1002.79
2022-12-31T03:13:07.514Z,1002.76
2022-12-31T03:14:07.266Z,1002.77
2022-12-31T03:15:07.236Z,1002.69
2022-12-31T03:16:07.234Z,1002.72
2022-12-31T03:17:07.238Z,1002.61
2022-12-31T03:18:07.271Z,1002.82
2022-12-31T03:19:07.188Z,1002.64
2022-12-31T03:20:07.170Z,1002.75
2022-12-31T03:21:07.199Z,1002.67
2022-12-31T03:22:07.146Z,1002.73
2022-12-31T03:23:07.097Z,1002.76
2022-12-31T03:24:07.133Z,1002.68
2022-12-31T03:25:07.134Z,1002.65
2022-12-31T03:26:07.073Z,1002.68
2022-12-31T03:27:07.053Z,1002.67
2022-12-31T03:28:07.065Z,1002.63
2022-12-31T03:29:07.073Z,1002.66
2022-12-31T03:30:07.075Z,1002.68
2022-12-31T03:31:07.054Z,1002.69
2022-12-31T03:32:07.028Z,1002.61
2022-12-31T03:33:07.009Z,1002.74
2022-12-31T03:34:06.964Z,1002.73
2022-12-31T03:35:07.056Z,1002.69
2022-12-31T03:36:06.972Z,1002.73
2022-12-31T03:37:06.924Z,1002.74
2022-12-31T03:38:06.948Z,1002.65
2022-12-31T03:39:06.890Z,1002.57
2022-12-31T03:40:06.894Z,1002.76
2022-12-31T03:41:06.877Z,1002.53
2022-12-31T03:42:15.672Z,1002.64
2022-12-31T03:43:07.792Z,1002.59
2022-12-31T03:44:06.959Z,1002.62
2022-12-31T03:45:06.867Z,1002.62
2022-12-31T03:46:06.868Z,1002.72
2022-12-31T03:47:06.810Z,1002.63
2022-12-31T03:48:06.809Z,1002.77
2022-12-31T03:49:06.776Z,1002.66
2022-12-31T03:50:06.776Z,1002.83
2022-12-31T03:51:06.959Z,1002.85
2022-12-31T03:52:06.720Z,1002.81
2022-12-31T03:53:06.805Z,1002.80
2022-12-31T03:54:06.702Z,1002.90
2022-12-31T03:55:06.995Z,1003.01
2022-12-31T03:56:06.691Z,1002.94
2022-12-31T03:57:06.665Z,1003.07
2022-12-31T03:58:06.666Z,1002.98
2022-12-31T03:59:06.633Z,1003.09
2022-12-31T04:00:06.650Z,1003.09
2022-12-31T04:01:06.789Z,1003.10
2022-12-31T04:02:06.743Z,1003.20
2022-12-31T04:03:06.634Z,1003.08
2022-12-31T04:04:06.644Z,1003.04
2022-12-31T04:05:06.609Z,1003.06
2022-12-31T04:06:06.601Z,1003.11
2022-12-31T04:07:06.554Z,1002.99
2022-12-31T04:08:06.503Z,1003.06
2022-12-31T04:09:06.509Z,1003.14
2022-12-31T04:10:06.542Z,1003.04
2022-12-31T04:11:06.479Z,1003.09
2022-12-31T04:12:06.507Z,1003.05
2022-12-31T04:13:06.512Z,1002.93
2022-12-31T04:14:06.499Z,1002.95
2022-12-31T04:15:06.419Z,1002.90
2022-12-31T04:16:06.476Z,1002.91
2022-12-31T04:17:06.417Z,1002.94
2022-12-31T04:18:06.414Z,1002.89
2022-12-31T04:19:06.419Z,1002.83
2022-12-31T04:20:06.404Z,1002.85
2022-12-31T04:21:06.339Z,1002.76
2022-12-31T04:22:06.309Z,1002.64
2022-12-31T04:23:06.316Z,1002.95
2022-12-31T04:24:06.341Z,1002.76
2022-12-31T04:25:06.329Z,1002.69
2022-12-31T04:26:06.277Z,1002.82
2022-12-31T04:27:08.014Z,1002.77
2022-12-31T04:28:06.277Z,1002.82
2022-12-31T04:29:06.244Z,1002.77
2022-12-31T04:30:06.285Z,1002.69
2022-12-31T04:31:06.258Z,1002.78
2022-12-31T04:32:06.216Z,1002.75
2022-12-31T04:33:06.217Z,1002.65
2022-12-31T04:34:06.150Z,1002.70
2022-12-31T04:35:06.174Z,1002.63
2022-12-31T04:36:06.138Z,1002.89
2022-12-31T04:37:06.169Z,1002.84
2022-12-31T04:38:06.201Z,1002.91
2022-12-31T04:39:06.195Z,1002.94
2022-12-31T04:40:06.983Z,1002.98
2022-12-31T04:41:06.092Z,1002.92
2022-12-31T04:42:06.068Z,1002.94
2022-12-31T04:43:06.040Z,1002.77
2022-12-31T04:44:06.129Z,1002.93
2022-12-31T04:45:06.047Z,1002.91
2022-12-31T04:46:06.193Z,1002.91
2022-12-31T04:47:06.004Z,1002.98
2022-12-31T04:48:06.017Z,1002.80
2022-12-31T04:49:06.031Z,1002.92
2022-12-31T04:50:05.990Z,1002.94
2022-12-31T04:51:06.042Z,1002.90
2022-12-31T04:52:05.962Z,1002.85
2022-12-31T04:53:05.952Z,1002.85
2022-12-31T04:54:05.924Z,1002.85
2022-12-31T04:55:06.000Z,1002.82
2022-12-31T04:56:05.882Z,1002.80
2022-12-31T04:57:05.863Z,1002.76
2022-12-31T04:58:06.003Z,1002.97
2022-12-31T04:59:05.857Z,1002.93
2022-12-31T05:00:05.864Z,1002.91
2022-12-31T05:01:05.929Z,1002.85
2022-12-31T05:02:05.970Z,1002.88
2022-12-31T05:03:05.814Z,1002.99
2022-12-31T05:04:05.788Z,1002.84
2022-12-31T05:05:05.790Z,1002.83
2022-12-31T05:06:05.749Z,1002.84
2022-12-31T05:07:05.717Z,1002.79
2022-12-31T05:08:05.728Z,1002.77
2022-12-31T05:09:05.724Z,1002.95
2022-12-31T05:10:05.717Z,1002.85
2022-12-31T05:11:05.676Z,1002.80
2022-12-31T05:12:05.639Z,1002.69
2022-12-31T05:13:05.681Z,1002.76
2022-12-31T05:14:05.673Z,1002.74
2022-12-31T05:15:05.639Z,1002.83
2022-12-31T05:16:05.582Z,1002.78
2022-12-31T05:17:05.620Z,1002.84
2022-12-31T05:18:05.629Z,1002.78
2022-12-31T05:19:05.571Z,1002.80
2022-12-31T05:20:05.614Z,1002.84
2022-12-31T05:21:05.536Z,1002.76
2022-12-31T05:22:05.537Z,1002.86
2022-12-31T05:23:05.532Z,1002.94
2022-12-31T05:24:05.622Z,1003.05
2022-12-31T05:25:05.479Z,1002.88
2022-12-31T05:26:05.475Z,1002.93
2022-12-31T05:27:05.458Z,1002.91
2022-12-31T05:28:05.472Z,1002.79
2022-12-31T05:29:05.455Z,1002.84
2022-12-31T05:30:05.403Z,1002.84
2022-12-31T05:31:05.495Z,1002.96
2022-12-31T05:32:05.477Z,1002.83
2022-12-31T05:33:05.378Z,1002.88
2022-12-31T05:34:05.349Z,1002.95
2022-12-31T05:35:15.729Z,1002.87
2022-12-31T05:36:05.432Z,1002.91
2022-12-31T05:37:05.546Z,1002.92
2022-12-31T05:38:05.356Z,1002.92
2022-12-31T05:39:05.335Z,1003.03
2022-12-31T05:40:05.287Z,1003.07
2022-12-31T05:41:05.295Z,1002.91
2022-12-31T05:42:14.141Z,1003.08
2022-12-31T05:43:05.287Z,1002.98
2022-12-31T05:44:05.399Z,1003.06
2022-12-31T05:45:05.269Z,1002.97
2022-12-31T05:46:05.405Z,1003.09
2022-12-31T05:47:05.193Z,1003.08
2022-12-31T05:48:05.167Z,1003.05
2022-12-31T05:49:05.194Z,1003.05
2022-12-31T05:50:05.188Z,1002.99
2022-12-31T05:51:05.160Z,1003.06
2022-12-31T05:52:05.096Z,1003.09
2022-12-31T05:53:05.102Z,1002.99
2022-12-31T05:54:05.097Z,1003.09
2022-12-31T05:55:05.128Z,1003.11
2022-12-31T05:56:05.059Z,1003.14
2022-12-31T05:57:05.069Z,1003.26
2022-12-31T05:58:05.052Z,1003.05
2022-12-31T05:59:05.030Z,1003.12
2022-12-31T06:00:05.030Z,1003.25
2022-12-31T06:01:05.028Z,1003.23
2022-12-31T06:02:04.986Z,1003.32
2022-12-31T06:03:05.062Z,1003.15
2022-12-31T06:04:05.093Z,1003.26
2022-12-31T06:05:04.940Z,1003.33
2022-12-31T06:06:04.926Z,1003.37
2022-12-31T06:07:04.917Z,1003.34
2022-12-31T06:08:04.898Z,1003.37
2022-12-31T06:09:04.903Z,1003.37
2022-12-31T06:10:04.911Z,1003.44
2022-12-31T06:11:04.901Z,1003.45
2022-12-31T06:12:04.847Z,1003.58
2022-12-31T06:13:04.836Z,1003.51
2022-12-31T06:14:04.832Z,1003.58
2022-12-31T06:15:04.844Z,1003.51
2022-12-31T06:16:04.892Z,1003.43
2022-12-31T06:17:04.866Z,1003.48
2022-12-31T06:18:04.793Z,1003.55
2022-12-31T06:19:04.775Z,1003.64
2022-12-31T06:20:10.530Z,1003.54
2022-12-31T06:21:05.851Z,1003.69
2022-12-31T06:22:04.739Z,1003.64
2022-12-31T06:23:04.709Z,1003.67
2022-12-31T06:24:04.707Z,1003.79
2022-12-31T06:25:04.710Z,1003.71
2022-12-31T06:26:04.689Z,1003.59
2022-12-31T06:27:04.673Z,1003.68
2022-12-31T06:28:04.633Z,1003.76
2022-12-31T06:29:04.621Z,1003.78
2022-12-31T06:30:04.602Z,1003.76
2022-12-31T06:31:04.688Z,1003.73
2022-12-31T06:32:04.675Z,1003.79
2022-12-31T06:33:04.708Z,1003.74
2022-12-31T06:34:04.560Z,1003.77
2022-12-31T06:35:04.612Z,1003.78
2022-12-31T06:36:04.515Z,1003.93
2022-12-31T06:37:04.564Z,1003.94
2022-12-31T06:38:04.525Z,1003.85
2022-12-31T06:39:04.510Z,1003.92
2022-12-31T06:40:04.579Z,1004.10
2022-12-31T06:41:04.463Z,1004.06
2022-12-31T06:42:04.484Z,1003.90
2022-12-31T06:43:04.458Z,1003.88
2022-12-31T06:44:04.424Z,1003.95
2022-12-31T06:45:04.422Z,1003.92
2022-12-31T06:46:04.496Z,1003.92
2022-12-31T06:47:04.410Z,1003.96
2022-12-31T06:48:04.503Z,1004.01
2022-12-31T06:49:04.441Z,1003.93
2022-12-31T06:50:04.363Z,1004.01
2022-12-31T06:51:04.493Z,1004.11
2022-12-31T06:52:04.338Z,1003.98
2022-12-31T06:53:04.316Z,1003.93
2022-12-31T06:54:04.279Z,1004.02
2022-12-31T06:55:04.303Z,1004.04
2022-12-31T06:56:04.272Z,1004.02
2022-12-31T06:57:04.363Z,1003.99
2022-12-31T06:58:04.260Z,1004.03
2022-12-31T06:59:04.242Z,1004.09
2022-12-31T07:00:04.204Z,1004.02
2022-12-31T07:01:04.254Z,1003.99
2022-12-31T07:02:04.290Z,1004.16
2022-12-31T07:03:04.178Z,1004.17
2022-12-31T07:04:04.164Z,1004.27
2022-12-31T07:05:04.197Z,1004.39
2022-12-31T07:06:04.125Z,1004.30
2022-12-31T07:07:04.111Z,1004.14
2022-12-31T07:08:04.113Z,1004.24
2022-12-31T07:09:04.076Z,1004.26
2022-12-31T07:10:04.078Z,1004.27
2022-12-31T07:11:04.055Z,1004.27
2022-12-31T07:12:04.079Z,1004.15
2022-12-31T07:13:04.050Z,1004.22
2022-12-31T07:14:04.027Z,1004.31
2022-12-31T07:15:04.002Z,1004.22
2022-12-31T07:16:04.058Z,1004.28
2022-12-31T07:17:04.028Z,1004.48
2022-12-31T07:18:03.973Z,1004.31
2022-12-31T07:19:03.977Z,1004.31
2022-12-31T07:20:04.002Z,1004.46
2022-12-31T07:21:03.926Z,1004.44
2022-12-31T07:22:03.931Z,1004.42
2022-12-31T07:23:03.927Z,1004.28
2022-12-31T07:24:03.884Z,1004.42
2022-12-31T07:25:03.884Z,1004.46
2022-12-31T07:26:04.003Z,1004.41
2022-12-31T07:27:03.858Z,1004.39
2022-12-31T07:28:03.847Z,1004.39
2022-12-31T07:29:03.855Z,1004.42
2022-12-31T07:30:03.835Z,1004.47
2022-12-31T07:31:03.814Z,1004.60
2022-12-31T07:32:03.769Z,1004.49
2022-12-31T07:33:03.781Z,1004.43
2022-12-31T07:34:03.774Z,1004.48
2022-12-31T07:35:03.734Z,1004.39
2022-12-31T07:36:03.762Z,1004.50
2022-12-31T07:37:03.717Z,1004.49
2022-12-31T07:38:03.704Z,1004.50
2022-12-31T07:39:03.688Z,1004.46
2022-12-31T07:40:03.656Z,1004.50
2022-12-31T07:41:09.431Z,1004.47
2022-12-31T07:42:04.696Z,1004.51
2022-12-31T07:43:03.657Z,1004.47
2022-12-31T07:44:03.619Z,1004.49
2022-12-31T07:45:03.680Z,1004.42
2022-12-31T07:46:03.606Z,1004.43
2022-12-31T07:47:03.572Z,1004.32
2022-12-31T07:48:03.613Z,1004.39
2022-12-31T07:49:03.536Z,1004.39
2022-12-31T07:50:03.534Z,1004.58
2022-12-31T07:51:03.507Z,1004.41
2022-12-31T07:52:03.543Z,1004.50
2022-12-31T07:53:03.520Z,1004.54
2022-12-31T07:54:05.473Z,1004.48
2022-12-31T07:55:04.750Z,1004.45
2022-12-31T07:56:03.505Z,1004.56
2022-12-31T07:57:03.470Z,1004.43
2022-12-31T07:58:03.472Z,1004.53
2022-12-31T07:59:03.439Z,1004.42
2022-12-31T08:00:03.391Z,1004.45
2022-12-31T08:01:03.526Z,1004.53
2022-12-31T08:02:03.624Z,1004.55
2022-12-31T08:03:03.460Z,1004.58
2022-12-31T08:04:03.355Z,1004.52
2022-12-31T08:05:03.418Z,1004.59
2022-12-31T08:06:03.329Z,1004.54
2022-12-31T08:07:03.325Z,1004.64
2022-12-31T08:08:03.369Z,1004.58
2022-12-31T08:09:03.344Z,1004.52
2022-12-31T08:10:03.312Z,1004.58
2022-12-31T08:11:03.246Z,1004.56
2022-12-31T08:12:03.351Z,1004.65
2022-12-31T08:13:03.225Z,1004.62
2022-12-31T08:14:03.264Z,1004.59
2022-12-31T08:15:03.261Z,1004.61
2022-12-31T08:16:03.226Z,1004.52
2022-12-31T08:17:03.187Z,1004.60
2022-12-31T08:18:03.178Z,1004.63
2022-12-31T08:19:03.179Z,1004.57
2022-12-31T08:20:03.198Z,1004.66
2022-12-31T08:21:03.138Z,1004.70
2022-12-31T08:22:03.114Z,1004.57
2022-12-31T08:23:03.106Z,1004.61
2022-12-31T08:24:03.141Z,1004.62
2022-12-31T08:25:03.090Z,1004.66
2022-12-31T08:26:03.069Z,1004.62
2022-12-31T08:27:03.270Z,1004.67
2022-12-31T08:28:03.138Z,1004.60
2022-12-31T08:29:03.016Z,1004.69
2022-12-31T08:30:03.106Z,1004.58
2022-12-31T08:31:03.036Z,1004.69
2022-12-31T08:32:03.094Z,1004.82
2022-12-31T08:33:02.958Z,1004.70
2022-12-31T08:34:06.025Z,1004.78
2022-12-31T08:35:02.999Z,1004.66
2022-12-31T08:36:02.947Z,1004.68
2022-12-31T08:37:02.906Z,1004.75
2022-12-31T08:38:02.956Z,1004.77
2022-12-31T08:39:02.905Z,1004.82
2022-12-31T08:40:02.901Z,1004.83
2022-12-31T08:41:02.841Z,1004.89
2022-12-31T08:42:03.079Z,1004.80
2022-12-31T08:43:02.873Z,1004.87
2022-12-31T08:44:02.884Z,1004.85
2022-12-31T08:45:02.829Z,1004.83
2022-12-31T08:46:02.884Z,1004.86
2022-12-31T08:47:02.821Z,1004.97
2022-12-31T08:48:02.790Z,1004.88
2022-12-31T08:49:02.757Z,1004.90
2022-12-31T08:50:02.796Z,1004.95
2022-12-31T08:51:02.756Z,1004.84
2022-12-31T08:52:02.737Z,1004.87
2022-12-31T08:53:02.755Z,1004.83
2022-12-31T08:54:02.713Z,1004.92
2022-12-31T08:55:02.668Z,1004.88
2022-12-31T08:56:02.658Z,1004.88
2022-12-31T08:57:02.893Z,1004.90
2022-12-31T08:58:02.669Z,1004.84
2022-12-31T08:59:03.002Z,1004.91
2022-12-31T09:00:02.620Z,1004.86
2022-12-31T09:01:02.673Z,1004.84
2022-12-31T09:02:02.722Z,1004.91
2022-12-31T09:03:02.570Z,1004.95
2022-12-31T09:04:02.674Z,1004.88
2022-12-31T09:05:02.644Z,1004.94
2022-12-31T09:06:02.554Z,1004.98
2022-12-31T09:07:02.548Z,1005.13
2022-12-31T09:08:02.516Z,1005.14
2022-12-31T09:09:02.551Z,1005.26
2022-12-31T09:10:02.526Z,1005.20
2022-12-31T09:11:02.480Z,1005.26
2022-12-31T09:12:02.441Z,1005.23
2022-12-31T09:13:02.436Z,1005.25
2022-12-31T09:14:02.415Z,1005.34
2022-12-31T09:15:02.443Z,1005.30
2022-12-31T09:16:02.597Z,1005.32
2022-12-31T09:17:02.467Z,1005.32
2022-12-31T09:18:02.384Z,1005.38
2022-12-31T09:19:02.367Z,1005.45
2022-12-31T09:20:02.352Z,1005.47
2022-12-31T09:21:02.360Z,1005.42
2022-12-31T09:22:02.313Z,1005.44
2022-12-31T09:23:02.284Z,1005.53
2022-12-31T09:24:08.943Z,1005.56
2022-12-31T09:25:03.272Z,1005.56
2022-12-31T09:26:02.255Z,1005.51
2022-12-31T09:27:02.297Z,1005.58
2022-12-31T09:28:02.225Z,1005.73
2022-12-31T09:29:02.226Z,1005.69
2022-12-31T09:30:02.238Z,1005.71
2022-12-31T09:31:02.200Z,1005.99
2022-12-31T09:32:02.400Z,1005.78
2022-12-31T09:33:02.196Z,1005.79
2022-12-31T09:34:02.151Z,1005.88
2022-12-31T09:35:02.135Z,1005.86
2022-12-31T09:36:02.145Z,1005.90
2022-12-31T09:37:02.325Z,1005.91
2022-12-31T09:38:06.464Z,1005.89
2022-12-31T09:39:03.071Z,1005.88
2022-12-31T09:40:02.094Z,1005.96
2022-12-31T09:41:02.073Z,1005.98
2022-12-31T09:42:02.179Z,1006.06
2022-12-31T09:43:09.568Z,1006.01
2022-12-31T09:44:02.032Z,1005.98
2022-12-31T09:45:01.996Z,1006.17
2022-12-31T09:46:02.045Z,1006.13
2022-12-31T09:47:01.955Z,1006.17
2022-12-31T09:48:01.973Z,1006.24
2022-12-31T09:49:01.946Z,1006.14
2022-12-31T09:50:01.926Z,1005.99
2022-12-31T09:51:01.938Z,1006.25
2022-12-31T09:52:01.924Z,1006.26
2022-12-31T09:53:01.916Z,1006.20
2022-12-31T09:54:01.872Z,1006.19
2022-12-31T09:55:01.865Z,1006.15
2022-12-31T09:56:01.834Z,1006.16
2022-12-31T09:57:01.836Z,1006.24
2022-12-31T09:58:01.848Z,1006.19
2022-12-31T09:59:01.786Z,1006.38
2022-12-31T10:00:01.810Z,1006.30
2022-12-31T10:01:01.967Z,1006.45
2022-12-31T10:02:01.922Z,1006.22
2022-12-31T10:03:01.783Z,1006.40
2022-12-31T10:04:01.759Z,1006.39
2022-12-31T10:05:01.752Z,1006.38
2022-12-31T10:06:01.722Z,1006.47
2022-12-31T10:07:01.716Z,1006.36
2022-12-31T10:08:01.676Z,1006.35
2022-12-31T10:09:01.657Z,1006.34
2022-12-31T10:10:01.767Z,1006.43
2022-12-31T10:11:01.639Z,1006.34
2022-12-31T10:12:01.631Z,1006.39
2022-12-31T10:13:01.674Z,1006.47
2022-12-31T10:14:01.588Z,1006.35
2022-12-31T10:15:01.596Z,1006.45
2022-12-31T10:16:01.646Z,1006.44
2022-12-31T10:17:01.602Z,1006.44
2022-12-31T10:18:01.551Z,1006.36
2022-12-31T10:19:01.581Z,1006.37
2022-12-31T10:20:01.577Z,1006.43
2022-12-31T10:21:01.529Z,1006.42
2022-12-31T10:22:01.496Z,1006.36
2022-12-31T10:23:01.496Z,1006.36
2022-12-31T10:24:01.493Z,1006.41
2022-12-31T10:25:01.460Z,1006.43
2022-12-31T10:26:01.451Z,1006.40
2022-12-31T10:27:01.428Z,1006.42
2022-12-31T10:28:01.417Z,1006.52
2022-12-31T10:29:01.394Z,1006.60
2022-12-31T10:30:01.408Z,1006.48
2022-12-31T10:31:01.424Z,1006.47
2022-12-31T10:32:01.373Z,1006.43
2022-12-31T10:33:01.383Z,1006.55
2022-12-31T10:34:01.350Z,1006.57
2022-12-31T10:35:01.367Z,1006.56
2022-12-31T10:36:01.319Z,1006.57
2022-12-31T10:37:01.297Z,1006.49
2022-12-31T10:38:01.268Z,1006.49
2022-12-31T10:39:01.289Z,1006.44
2022-12-31T10:40:01.278Z,1006.48
2022-12-31T10:41:01.295Z,1006.44
2022-12-31T10:42:01.253Z,1006.47
2022-12-31T10:43:01.225Z,1006.47
2022-12-31T10:44:01.196Z,1006.28
2022-12-31T10:45:01.203Z,1006.49
2022-12-31T10:46:01.202Z,1006.64
2022-12-31T10:47:01.169Z,1006.47
2022-12-31T10:48:01.151Z,1006.54
2022-12-31T10:49:01.161Z,1006.48
2022-12-31T10:50:01.124Z,1006.54
2022-12-31T10:51:01.106Z,1006.54
2022-12-31T10:52:01.136Z,1006.57
2022-12-31T10:53:01.135Z,1006.57
2022-12-31T10:54:01.102Z,1006.53
2022-12-31T10:55:01.038Z,1006.48
2022-12-31T10:56:01.050Z,1006.35
2022-12-31T10:57:01.102Z,1006.36
2022-12-31T10:58:04.211Z,1006.37
2022-12-31T10:59:01.016Z,1006.33
2022-12-31T11:00:00.973Z,1006.43
2022-12-31T11:01:01.122Z,1006.27
2022-12-31T11:02:01.100Z,1006.37
2022-12-31T11:03:01.014Z,1006.37
2022-12-31T11:04:00.968Z,1006.24
2022-12-31T11:05:00.965Z,1006.21
2022-12-31T11:06:00.897Z,1006.29
2022-12-31T11:07:00.918Z,1006.21
2022-12-31T11:08:00.862Z,1006.21
2022-12-31T11:09:00.967Z,1006.31
2022-12-31T11:10:00.899Z,1006.20
2022-12-31T11:11:00.851Z,1006.20
2022-12-31T11:12:00.831Z,1006.19
2022-12-31T11:13:00.811Z,1006.29
2022-12-31T11:14:00.807Z,1006.25
2022-12-31T11:15:00.778Z,1006.21
2022-12-31T11:16:00.893Z,1006.28
2022-12-31T11:17:00.861Z,1006.42
2022-12-31T11:18:00.751Z,1006.21
2022-12-31T11:19:00.771Z,1006.02
2022-12-31T11:20:00.711Z,1006.28
2022-12-31T11:21:00.697Z,1006.31
2022-12-31T11:22:00.718Z,1006.17
2022-12-31T11:23:00.676Z,1006.25
2022-12-31T11:24:00.666Z,1006.28
2022-12-31T11:25:00.646Z,1006.29
2022-12-31T11:26:00.622Z,1006.27
2022-12-31T11:27:00.614Z,1006.38
2022-12-31T11:28:00.633Z,1006.34
2022-12-31T11:29:00.593Z,1006.28
2022-12-31T11:30:00.577Z,1006.40
2022-12-31T11:31:00.629Z,1006.37
2022-12-31T11:32:00.574Z,1006.49
2022-12-31T11:33:00.575Z,1006.43
2022-12-31T11:34:00.525Z,1006.44
2022-12-31T11:35:00.547Z,1006.41
2022-12-31T11:36:00.486Z,1006.48
2022-12-31T11:37:00.539Z,1006.43
2022-12-31T11:38:00.481Z,1006.39
2022-12-31T11:39:00.455Z,1006.39
2022-12-31T11:40:00.463Z,1006.47
2022-12-31T11:41:00.438Z,1006.49
2022-12-31T11:42:00.414Z,1006.48
2022-12-31T11:43:00.473Z,1006.49
2022-12-31T11:44:00.400Z,1006.50
2022-12-31T11:45:00.368Z,1006.47
2022-12-31T11:46:00.384Z,1006.52
2022-12-31T11:47:00.360Z,1006.57
2022-12-31T11:49:01.359Z,1006.53
2022-12-31T11:50:00.332Z,1006.49
2022-12-31T11:51:00.323Z,1006.49
2022-12-31T11:52:00.284Z,1006.53
2022-12-31T11:53:00.271Z,1006.48
2022-12-31T11:54:00.275Z,1006.47
2022-12-31T11:55:00.261Z,1006.45
2022-12-31T11:56:00.239Z,1006.53
2022-12-31T11:57:00.255Z,1006.44
2022-12-31T11:58:00.196Z,1006.57
2022-12-31T11:59:02.540Z,1006.45
2022-12-31T12:00:01.182Z,1006.43
2022-12-31T12:01:00.234Z,1006.58
2022-12-31T12:02:00.164Z,1006.59
2022-12-31T12:03:00.225Z,1006.63
2022-12-31T12:04:00.181Z,1006.56
2022-12-31T12:05:02.670Z,1006.63
2022-12-31T12:06:01.096Z,1006.52